createdAt,value
2023-03-06T00:03:46.949Z,3.35
2023-03-06T00:08:48.377Z,3.45
2023-03-06T00:13:49.744Z,3.95
2023-03-06T00:18:51.585Z,2.78
2023-03-06T00:23:52.965Z,3.08
2023-03-06T00:28:54.344Z,3.60
2023-03-06T00:33:55.685Z,3.03
2023-03-06T00:38:57.072Z,3.60
2023-03-06T00:43:58.447Z,2.85
2023-03-06T00:48:59.885Z,2.50
2023-03-06T00:54:01.340Z,2.50
2023-03-06T00:59:02.709Z,3.15
2023-03-06T01:04:04.629Z,3.10
2023-03-06T01:09:06.213Z,2.58
2023-03-06T01:14:07.685Z,2.90
2023-03-06T01:19:09.498Z,3.38
2023-03-06T01:24:10.872Z,2.42
2023-03-06T01:29:12.290Z,3.35
2023-03-06T01:34:13.742Z,3.60
2023-03-06T01:39:15.278Z,4.32
2023-03-06T01:44:16.657Z,2.78
2023-03-06T01:49:25.635Z,2.88
2023-03-06T01:54:32.108Z,2.67
2023-03-06T01:59:37.196Z,3.08
2023-03-06T02:04:41.181Z,2.60
2023-03-06T02:09:42.557Z,3.40
2023-03-06T02:14:44.985Z,3.70
2023-03-06T02:20:10.867Z,3.03
2023-03-06T02:25:43.134Z,2.70
2023-03-06T02:30:46.999Z,3.03
2023-03-06T02:35:54.578Z,3.28
2023-03-06T02:40:58.008Z,2.60
2023-03-06T02:45:59.437Z,2.75
2023-03-06T02:51:01.154Z,2.72
2023-03-06T02:56:02.723Z,3.35
2023-03-06T03:01:04.737Z,3.50
2023-03-06T03:06:06.945Z,3.28
2023-03-06T03:11:09.243Z,3.30
2023-03-06T03:16:15.330Z,2.75
2023-03-06T03:21:17.909Z,2.85
2023-03-06T03:26:21.463Z,3.03
2023-03-06T03:31:22.909Z,3.38
2023-03-06T03:36:25.982Z,2.55
2023-03-06T03:41:27.362Z,3.78
2023-03-06T03:46:28.944Z,3.33
2023-03-06T03:51:30.362Z,3.78
2023-03-06T03:56:32.224Z,3.13
2023-03-06T04:01:34.083Z,2.55
2023-03-06T04:06:35.784Z,3.35
2023-03-06T04:11:37.449Z,4.13
2023-03-06T04:16:38.826Z,2.83
2023-03-06T04:21:40.392Z,3.08
2023-03-06T04:26:41.972Z,3.17
2023-03-06T04:31:43.447Z,3.45
2023-03-06T04:36:47.414Z,3.50
2023-03-06T04:41:48.835Z,3.78
2023-03-06T04:46:50.268Z,3.47
2023-03-06T04:51:51.653Z,3.90
2023-03-06T04:56:53.035Z,4.15
2023-03-06T05:01:55.999Z,3.38
2023-03-06T05:06:57.405Z,4.97
2023-03-06T05:11:58.765Z,4.45
2023-03-06T05:17:00.285Z,4.65
2023-03-06T05:22:01.857Z,5.40
2023-03-06T05:27:03.822Z,4.47
2023-03-06T05:32:05.712Z,4.60
2023-03-06T05:37:07.160Z,5.18
2023-03-06T05:42:08.554Z,4.45
2023-03-06T05:47:11.212Z,4.45
2023-03-06T05:52:13.257Z,5.70
2023-03-06T05:57:14.606Z,5.00
2023-03-06T06:02:18.260Z,5.25
2023-03-06T06:07:19.638Z,5.50
2023-03-06T06:12:21.001Z,5.07
2023-03-06T06:17:22.427Z,5.50
2023-03-06T06:22:24.606Z,5.45
2023-03-06T06:27:26.106Z,5.25
2023-03-06T06:32:27.518Z,4.93
2023-03-06T06:37:28.898Z,5.38
2023-03-06T06:42:36.961Z,5.13
2023-03-06T06:47:41.623Z,5.30
2023-03-06T06:52:43.264Z,4.72
2023-03-06T06:57:45.193Z,4.25
2023-03-06T07:02:49.218Z,4.60
2023-03-06T07:07:51.406Z,5.22
2023-03-06T07:12:53.203Z,4.90
2023-03-06T07:17:54.619Z,4.95
2023-03-06T07:22:56.063Z,4.00
2023-03-06T07:27:57.528Z,5.20
2023-03-06T07:32:59.876Z,5.57
2023-03-06T07:38:01.864Z,5.97
2023-03-06T07:43:18.412Z,6.05
2023-03-06T07:48:20.606Z,5.50
2023-03-06T07:53:22.636Z,5.57
2023-03-06T07:58:24.727Z,5.30
2023-03-06T08:03:26.291Z,5.22
2023-03-06T08:08:27.671Z,6.25
2023-03-06T08:13:29.052Z,5.57
2023-03-06T08:18:30.669Z,5.60
2023-03-06T08:23:33.537Z,5.55
2023-03-06T08:28:35.225Z,5.32
2023-03-06T08:33:36.682Z,5.72
2023-03-06T08:38:38.021Z,5.63
2023-03-06T08:43:40.216Z,5.00
2023-03-06T08:48:41.888Z,5.53
2023-03-06T08:53:44.506Z,4.47
2023-03-06T08:58:46.844Z,3.08
2023-03-06T09:03:48.687Z,3.70
2023-03-06T09:08:53.919Z,4.72
2023-03-06T09:13:56.312Z,4.68
2023-03-06T09:18:58.692Z,4.80
2023-03-06T09:24:00.282Z,5.85
2023-03-06T09:29:02.446Z,5.55
2023-03-06T09:34:03.867Z,5.78
2023-03-06T09:39:05.195Z,5.50
2023-03-06T09:44:14.484Z,5.07
2023-03-06T09:49:41.953Z,3.63
2023-03-06T09:54:55.339Z,4.97
2023-03-06T10:00:12.689Z,6.10
2023-03-06T10:05:21.533Z,5.50
2023-03-06T10:10:26.775Z,6.45
2023-03-06T10:15:34.134Z,8.02
2023-03-06T10:20:54.394Z,6.78
2023-03-06T10:26:08.521Z,6.70
2023-03-06T10:31:22.923Z,6.25
2023-03-06T10:36:28.687Z,6.75
2023-03-06T10:41:32.150Z,5.65
2023-03-06T10:46:36.377Z,5.90
2023-03-06T10:51:38.032Z,6.57
2023-03-06T10:56:45.768Z,6.15
2023-03-06T11:01:49.793Z,6.13
2023-03-06T11:07:13.352Z,4.57
2023-03-06T11:12:32.654Z,5.43
2023-03-06T11:17:37.571Z,4.63
2023-03-06T11:22:39.742Z,3.83
2023-03-06T11:27:44.044Z,4.35
2023-03-06T11:32:53.934Z,5.45
2023-03-06T11:37:59.892Z,5.80
2023-03-06T11:43:19.948Z,5.22
2023-03-06T11:48:28.295Z,5.10
2023-03-06T11:53:33.556Z,5.75
2023-03-06T11:59:02.142Z,4.60
2023-03-06T12:04:22.402Z,4.97
2023-03-06T12:09:34.266Z,4.85
2023-03-06T12:14:40.388Z,5.07
2023-03-06T12:20:06.805Z,4.15
2023-03-06T12:25:25.538Z,3.95
2023-03-06T12:30:40.465Z,3.60
2023-03-06T12:35:47.958Z,3.92
2023-03-06T12:46:19.707Z,2.40
2023-03-06T12:51:21.997Z,3.70
2023-03-06T12:56:23.493Z,4.50
2023-03-06T13:01:55.528Z,3.80
2023-03-06T13:07:29.645Z,4.68
2023-03-06T13:12:50.109Z,3.33
2023-03-06T13:17:51.450Z,4.10
2023-03-06T13:22:52.831Z,4.85
2023-03-06T13:27:54.255Z,3.88
2023-03-06T13:32:56.131Z,4.47
2023-03-06T13:37:59.076Z,4.05
2023-03-06T13:43:09.445Z,4.72
2023-03-06T13:48:44.623Z,4.13
2023-03-06T13:54:13.853Z,4.35
2023-03-06T13:59:21.053Z,5.32
2023-03-06T14:04:27.131Z,4.68
2023-03-06T14:09:35.765Z,4.57
2023-03-06T14:14:43.761Z,3.85
2023-03-06T14:19:45.751Z,4.60
2023-03-06T14:25:30.269Z,4.00
2023-03-06T14:30:31.742Z,3.97
2023-03-06T14:35:34.602Z,4.82
2023-03-06T14:40:42.621Z,4.45
2023-03-06T14:46:02.310Z,4.32
2023-03-06T14:51:05.470Z,4.68
2023-03-06T14:56:07.903Z,4.68
2023-03-06T15:01:11.402Z,5.25
2023-03-06T15:06:22.612Z,4.75
2023-03-06T15:11:24.182Z,4.55
2023-03-06T15:16:30.047Z,5.50
2023-03-06T15:21:37.688Z,4.82
2023-03-06T15:26:40.317Z,4.10
2023-03-06T15:31:44.119Z,4.90
2023-03-06T15:36:54.260Z,5.68
2023-03-06T15:41:57.769Z,5.25
2023-03-06T15:47:08.407Z,3.65
2023-03-06T15:52:11.130Z,5.30
2023-03-06T15:57:30.784Z,5.47
2023-03-06T16:02:32.458Z,4.90
2023-03-06T16:07:34.009Z,5.68
2023-03-06T16:12:35.881Z,5.43
2023-03-06T16:17:37.406Z,5.68
2023-03-06T16:22:38.865Z,5.57
2023-03-06T16:27:43.945Z,5.47
2023-03-06T16:32:46.135Z,5.18
2023-03-06T16:37:47.795Z,6.10
2023-03-06T16:42:52.004Z,5.57
2023-03-06T16:47:54.705Z,6.07
2023-03-06T16:52:57.522Z,6.10
2023-03-06T16:57:59.093Z,5.32
2023-03-06T17:03:01.736Z,5.95
2023-03-06T17:08:04.698Z,5.43
2023-03-06T17:13:08.400Z,5.82
2023-03-06T17:18:09.741Z,6.53
2023-03-06T17:23:11.331Z,5.75
2023-03-06T17:28:13.433Z,5.82
2023-03-06T17:33:17.466Z,6.35
2023-03-06T17:38:19.126Z,6.43
2023-03-06T17:43:21.036Z,7.32
2023-03-06T17:48:22.568Z,5.85
2023-03-06T17:53:24.000Z,6.13
2023-03-06T17:58:26.525Z,4.70
2023-03-06T18:03:29.036Z,4.65
2023-03-06T18:08:32.048Z,4.45
2023-03-06T18:13:34.985Z,4.70
2023-03-06T18:18:36.443Z,5.25
2023-03-06T18:23:39.329Z,4.55
2023-03-06T18:28:44.376Z,5.20
2023-03-06T18:33:48.663Z,4.72
2023-03-06T18:38:50.218Z,5.20
2023-03-06T18:43:52.977Z,4.70
2023-03-06T18:48:54.859Z,4.18
2023-03-06T18:53:58.125Z,4.82
2023-03-06T18:59:04.405Z,4.35
2023-03-06T19:04:05.948Z,4.82
2023-03-06T19:09:08.019Z,5.13
2023-03-06T19:14:09.440Z,5.45
2023-03-06T19:19:10.935Z,5.28
2023-03-06T19:24:14.979Z,5.07
2023-03-06T19:29:16.440Z,5.03
2023-03-06T19:34:18.037Z,5.45
2023-03-06T19:39:19.633Z,6.50
2023-03-06T19:44:21.137Z,6.90
2023-03-06T19:49:22.599Z,6.68
2023-03-06T19:54:25.509Z,6.88
2023-03-06T19:59:27.023Z,6.47
2023-03-06T20:04:34.566Z,6.85
2023-03-06T20:09:36.205Z,6.53
2023-03-06T20:14:37.654Z,5.88
2023-03-06T20:19:39.187Z,6.88
2023-03-06T20:24:40.727Z,7.10
2023-03-06T20:29:45.704Z,7.03
2023-03-06T20:34:47.132Z,7.63
2023-03-06T20:39:48.566Z,8.63
2023-03-06T20:44:49.940Z,6.90
2023-03-06T20:55:11.444Z,7.38
2023-03-06T21:05:18.392Z,6.53
2023-03-06T21:10:22.254Z,7.28
2023-03-06T21:15:27.634Z,8.55
2023-03-06T21:20:29.317Z,8.75
2023-03-06T21:30:46.859Z,8.52
2023-03-06T21:35:48.308Z,8.40
2023-03-06T21:40:49.666Z,8.93
2023-03-06T21:45:54.115Z,9.15
2023-03-06T21:51:05.927Z,8.07
2023-03-06T21:56:07.899Z,8.13
2023-03-06T22:01:14.072Z,9.45
2023-03-06T22:06:18.617Z,8.52
2023-03-06T22:11:21.680Z,8.50
2023-03-06T22:16:23.574Z,8.43
2023-03-06T22:21:25.258Z,9.30
2023-03-06T22:26:28.433Z,9.57
2023-03-06T22:31:30.257Z,9.15
2023-03-06T22:36:32.329Z,9.43
2023-03-06T22:41:33.671Z,9.13
2023-03-06T22:46:35.400Z,9.38
2023-03-06T22:51:37.626Z,10.20
2023-03-06T22:56:39.052Z,9.32
2023-03-06T23:01:40.507Z,10.38
2023-03-06T23:06:43.043Z,11.43
2023-03-06T23:11:44.392Z,10.57
2023-03-06T23:16:46.056Z,11.18
2023-03-06T23:21:47.413Z,11.10
2023-03-06T23:26:49.124Z,10.05
2023-03-06T23:31:50.503Z,11.20
2023-03-06T23:36:51.882Z,11.45
2023-03-06T23:41:53.265Z,10.70
2023-03-06T23:46:54.594Z,10.02
2023-03-06T23:51:55.921Z,10.60
2023-03-06T23:56:57.273Z,10.73
